sensor_id;sensor_type;location;lat;lon;timestamp;pressure;altitude;pressure_sealevel;temperature;humidity
45357;BME280;31092;51.924;21.448;2023-04-19T00:01:43;100503.91;;;9.06;100.00
45357;BME280;31092;51.924;21.448;2023-04-19T00:04:08;100503.22;;;9.04;100.00
45357;BME280;31092;51.924;21.448;2023-04-19T00:06:34;100499.97;;;9.00;100.00
45357;BME280;31092;51.924;21.448;2023-04-19T00:08:59;100501.78;;;9.00;100.00
45357;BME280;31092;51.924;21.448;2023-04-19T00:11:25;100495.75;;;8.98;100.00
45357;BME280;31092;51.924;21.448;2023-04-19T00:13:50;100494.91;;;8.97;100.00
45357;BME280;31092;51.924;21.448;2023-04-19T00:16:15;100494.91;;;8.97;100.00
45357;BME280;31092;51.924;21.448;2023-04-19T00:18:41;100496.03;;;8.95;100.00
45357;BME280;31092;51.924;21.448;2023-04-19T00:21:07;100484.59;;;8.93;100.00
45357;BME280;31092;51.924;21.448;2023-04-19T00:23:32;100485.28;;;8.95;100.00
45357;BME280;31092;51.924;21.448;2023-04-19T00:25:57;100481.59;;;8.96;100.00
45357;BME280;31092;51.924;21.448;2023-04-19T00:28:23;100486.97;;;8.96;100.00
45357;BME280;31092;51.924;21.448;2023-04-19T00:30:49;100481.06;;;8.92;100.00
45357;BME280;31092;51.924;21.448;2023-04-19T00:33:14;100475.28;;;8.87;100.00
45357;BME280;31092;51.924;21.448;2023-04-19T00:35:39;100468.38;;;8.84;100.00
45357;BME280;31092;51.924;21.448;2023-04-19T00:38:06;100472.06;;;8.83;100.00
45357;BME280;31092;51.924;21.448;2023-04-19T00:40:31;100470.50;;;8.81;100.00
45357;BME280;31092;51.924;21.448;2023-04-19T00:42:57;100466.16;;;8.80;100.00
45357;BME280;31092;51.924;21.448;2023-04-19T00:45:22;100460.59;;;8.81;100.00
45357;BME280;31092;51.924;21.448;2023-04-19T00:47:47;100461.44;;;8.82;100.00
45357;BME280;31092;51.924;21.448;2023-04-19T00:50:13;100450.72;;;8.82;100.00
45357;BME280;31092;51.924;21.448;2023-04-19T00:52:38;100452.72;;;8.80;100.00
45357;BME280;31092;51.924;21.448;2023-04-19T00:55:04;100448.47;;;8.77;100.00
45357;BME280;31092;51.924;21.448;2023-04-19T00:57:31;100454.31;;;8.73;100.00
45357;BME280;31092;51.924;21.448;2023-04-19T00:59:56;100447.69;;;8.67;100.00
45357;BME280;31092;51.924;21.448;2023-04-19T01:02:22;100435.84;;;8.60;100.00
45357;BME280;31092;51.924;21.448;2023-04-19T01:04:47;100452.56;;;8.54;100.00
45357;BME280;31092;51.924;21.448;2023-04-19T01:07:13;100439.56;;;8.49;100.00
45357;BME280;31092;51.924;21.448;2023-04-19T01:09:39;100428.44;;;8.44;100.00
45357;BME280;31092;51.924;21.448;2023-04-19T01:12:05;100430.28;;;8.44;100.00
45357;BME280;31092;51.924;21.448;2023-04-19T01:14:30;100435.94;;;8.41;100.00
45357;BME280;31092;51.924;21.448;2023-04-19T01:16:56;100429.00;;;8.38;100.00
45357;BME280;31092;51.924;21.448;2023-04-19T01:19:21;100424.63;;;8.37;100.00
45357;BME280;31092;51.924;21.448;2023-04-19T01:21:47;100416.69;;;8.35;100.00
45357;BME280;31092;51.924;21.448;2023-04-19T01:24:12;100425.03;;;8.32;100.00
45357;BME280;31092;51.924;21.448;2023-04-19T01:26:38;100414.63;;;8.29;100.00
45357;BME280;31092;51.924;21.448;2023-04-19T01:29:03;100426.59;;;8.25;100.00
45357;BME280;31092;51.924;21.448;2023-04-19T01:31:28;100431.56;;;8.20;100.00
45357;BME280;31092;51.924;21.448;2023-04-19T01:33:53;100434.72;;;8.15;100.00
45357;BME280;31092;51.924;21.448;2023-04-19T01:36:19;100434.00;;;8.13;100.00
45357;BME280;31092;51.924;21.448;2023-04-19T01:38:44;100429.63;;;8.12;100.00
45357;BME280;31092;51.924;21.448;2023-04-19T01:41:12;100427.06;;;8.11;100.00
45357;BME280;31092;51.924;21.448;2023-04-19T01:43:37;100438.81;;;8.10;100.00
45357;BME280;31092;51.924;21.448;2023-04-19T01:46:02;100430.06;;;8.08;100.00
45357;BME280;31092;51.924;21.448;2023-04-19T01:48:28;100433.88;;;8.05;100.00
45357;BME280;31092;51.924;21.448;2023-04-19T01:50:53;100431.19;;;8.05;100.00
45357;BME280;31092;51.924;21.448;2023-04-19T01:53:18;100425.28;;;8.02;100.00
45357;BME280;31092;51.924;21.448;2023-04-19T01:55:44;100419.19;;;8.00;100.00
45357;BME280;31092;51.924;21.448;2023-04-19T01:58:09;100413.16;;;7.98;100.00
45357;BME280;31092;51.924;21.448;2023-04-19T02:00:35;100407.06;;;7.96;100.00
45357;BME280;31092;51.924;21.448;2023-04-19T02:03:00;100407.22;;;7.94;100.00
45357;BME280;31092;51.924;21.448;2023-04-19T02:05:25;100399.47;;;7.91;100.00
45357;BME280;31092;51.924;21.448;2023-04-19T02:07:51;100404.13;;;7.89;100.00
45357;BME280;31092;51.924;21.448;2023-04-19T02:10:16;100394.41;;;7.88;100.00
45357;BME280;31092;51.924;21.448;2023-04-19T02:12:41;100391.00;;;7.86;100.00
45357;BME280;31092;51.924;21.448;2023-04-19T02:15:07;100392.00;;;7.85;100.00
45357;BME280;31092;51.924;21.448;2023-04-19T02:17:32;100386.06;;;7.81;100.00
45357;BME280;31092;51.924;21.448;2023-04-19T02:19:57;100387.91;;;7.81;100.00
45357;BME280;31092;51.924;21.448;2023-04-19T02:22:23;100379.31;;;7.77;100.00
45357;BME280;31092;51.924;21.448;2023-04-19T02:24:49;100381.16;;;7.77;100.00
45357;BME280;31092;51.924;21.448;2023-04-19T02:27:14;100379.75;;;7.73;100.00
45357;BME280;31092;51.924;21.448;2023-04-19T02:29:39;100388.09;;;7.70;100.00
45357;BME280;31092;51.924;21.448;2023-04-19T02:32:05;100396.00;;;7.61;100.00
45357;BME280;31092;51.924;21.448;2023-04-19T02:34:34;100388.66;;;7.54;100.00
45357;BME280;31092;51.924;21.448;2023-04-19T02:36:59;100394.44;;;7.49;100.00
45357;BME280;31092;51.924;21.448;2023-04-19T02:39:25;100393.03;;;7.45;100.00
45357;BME280;31092;51.924;21.448;2023-04-19T02:41:50;100394.44;;;7.39;100.00
45357;BME280;31092;51.924;21.448;2023-04-19T02:44:16;100393.03;;;7.35;100.00
45357;BME280;31092;51.924;21.448;2023-04-19T02:46:46;100385.16;;;7.34;100.00
45357;BME280;31092;51.924;21.448;2023-04-19T02:49:12;100387.84;;;7.34;100.00
45357;BME280;31092;51.924;21.448;2023-04-19T02:51:37;100384.88;;;7.37;100.00
45357;BME280;31092;51.924;21.448;2023-04-19T02:54:03;100383.72;;;7.39;100.00
45357;BME280;31092;51.924;21.448;2023-04-19T02:56:28;100375.28;;;7.44;100.00
45357;BME280;31092;51.924;21.448;2023-04-19T02:58:53;100375.28;;;7.44;100.00
45357;BME280;31092;51.924;21.448;2023-04-19T03:01:19;100375.41;;;7.42;100.00
45357;BME280;31092;51.924;21.448;2023-04-19T03:03:44;100369.47;;;7.39;100.00
45357;BME280;31092;51.924;21.448;2023-04-19T03:06:10;100367.66;;;7.39;100.00
45357;BME280;31092;51.924;21.448;2023-04-19T03:08:35;100370.19;;;7.41;100.00
45357;BME280;31092;51.924;21.448;2023-04-19T03:11:00;100357.66;;;7.41;100.00
45357;BME280;31092;51.924;21.448;2023-04-19T03:13:26;100358.34;;;7.43;100.00
45357;BME280;31092;51.924;21.448;2023-04-19T03:15:51;100352.84;;;7.45;100.00
45357;BME280;31092;51.924;21.448;2023-04-19T03:18:16;100355.53;;;7.45;100.00
45357;BME280;31092;51.924;21.448;2023-04-19T03:20:42;100349.44;;;7.43;100.00
45357;BME280;31092;51.924;21.448;2023-04-19T03:23:07;100348.47;;;7.44;100.00
45357;BME280;31092;51.924;21.448;2023-04-19T03:25:32;100348.31;;;7.46;100.00
45357;BME280;31092;51.924;21.448;2023-04-19T03:27:58;100347.19;;;7.48;100.00
45357;BME280;31092;51.924;21.448;2023-04-19T03:30:23;100348.03;;;7.49;100.00
45357;BME280;31092;51.924;21.448;2023-04-19T03:32:49;100352.28;;;7.51;100.00
45357;BME280;31092;51.924;21.448;2023-04-19T03:35:16;100344.94;;;7.53;100.00
45357;BME280;31092;51.924;21.448;2023-04-19T03:37:41;100352.69;;;7.56;100.00
45357;BME280;31092;51.924;21.448;2023-04-19T03:40:07;100352.41;;;7.59;100.00
45357;BME280;31092;51.924;21.448;2023-04-19T03:42:33;100350.44;;;7.61;100.00
45357;BME280;31092;51.924;21.448;2023-04-19T03:44:58;100347.75;;;7.61;100.00
45357;BME280;31092;51.924;21.448;2023-04-19T03:47:23;100345.75;;;7.63;100.00
45357;BME280;31092;51.924;21.448;2023-04-19T03:49:49;100342.94;;;7.65;100.00
45357;BME280;31092;51.924;21.448;2023-04-19T03:52:15;100338.28;;;7.67;100.00
45357;BME280;31092;51.924;21.448;2023-04-19T03:54:41;100337.28;;;7.68;100.00
45357;BME280;31092;51.924;21.448;2023-04-19T03:57:06;100341.50;;;7.71;100.00
45357;BME280;31092;51.924;21.448;2023-04-19T03:59:31;100336.16;;;7.71;100.00
45357;BME280;31092;51.924;21.448;2023-04-19T04:01:56;100328.94;;;7.71;100.00
45357;BME280;31092;51.924;21.448;2023-04-19T04:04:22;100340.50;;;7.72;100.00
45357;BME280;31092;51.924;21.448;2023-04-19T04:06:47;100332.47;;;7.72;100.00
45357;BME280;31092;51.924;21.448;2023-04-19T04:09:13;100339.66;;;7.71;100.00
45357;BME280;31092;51.924;21.448;2023-04-19T04:11:38;100334.19;;;7.73;100.00
45357;BME280;31092;51.924;21.448;2023-04-19T04:14:03;100332.34;;;7.73;100.00
45357;BME280;31092;51.924;21.448;2023-04-19T04:16:29;100329.66;;;7.73;100.00
45357;BME280;31092;51.924;21.448;2023-04-19T04:18:54;100326.97;;;7.73;100.00
45357;BME280;31092;51.924;21.448;2023-04-19T04:21:19;100326.81;;;7.75;100.00
45357;BME280;31092;51.924;21.448;2023-04-19T04:23:45;100330.34;;;7.75;100.00
45357;BME280;31092;51.924;21.448;2023-04-19T04:26:11;100334.88;;;7.75;100.00
45357;BME280;31092;51.924;21.448;2023-04-19T04:28:37;100337.53;;;7.75;100.00
45357;BME280;31092;51.924;21.448;2023-04-19T04:31:03;100329.38;;;7.76;100.00
45357;BME280;31092;51.924;21.448;2023-04-19T04:33:28;100327.66;;;7.75;100.00
45357;BME280;31092;51.924;21.448;2023-04-19T04:35:54;100324.97;;;7.75;100.00
45357;BME280;31092;51.924;21.448;2023-04-19T04:38:20;100326.81;;;7.75;100.00
45357;BME280;31092;51.924;21.448;2023-04-19T04:40:52;100331.34;;;7.74;100.00
45357;BME280;31092;51.924;21.448;2023-04-19T04:43:18;100330.50;;;7.74;100.00
45357;BME280;31092;51.924;21.448;2023-04-19T04:45:45;100330.50;;;7.74;100.00
45357;BME280;31092;51.924;21.448;2023-04-19T04:48:10;100333.03;;;7.75;100.00
45357;BME280;31092;51.924;21.448;2023-04-19T04:50:35;100325.13;;;7.74;100.00
45357;BME280;31092;51.924;21.448;2023-04-19T04:53:01;100335.69;;;7.75;100.00
45357;BME280;31092;51.924;21.448;2023-04-19T04:55:26;100329.38;;;7.76;100.00
45357;BME280;31092;51.924;21.448;2023-04-19T04:57:52;100316.81;;;7.77;100.00
45357;BME280;31092;51.924;21.448;2023-04-19T05:00:17;100322.16;;;7.77;100.00
45357;BME280;31092;51.924;21.448;2023-04-19T05:02:42;100321.31;;;7.76;100.00
45357;BME280;31092;51.924;21.448;2023-04-19T05:05:08;100320.47;;;7.76;100.00
45357;BME280;31092;51.924;21.448;2023-04-19T05:07:35;100323.00;;;7.77;100.00
45357;BME280;31092;51.924;21.448;2023-04-19T05:10:00;100322.84;;;7.79;100.00
45357;BME280;31092;51.924;21.448;2023-04-19T05:12:26;100315.53;;;7.81;100.00
45357;BME280;31092;51.924;21.448;2023-04-19T05:14:51;100318.91;;;7.83;100.00
45357;BME280;31092;51.924;21.448;2023-04-19T05:17:17;100319.75;;;7.83;100.00
45357;BME280;31092;51.924;21.448;2023-04-19T05:19:42;100319.75;;;7.83;100.00
45357;BME280;31092;51.924;21.448;2023-04-19T05:22:08;100317.75;;;7.85;100.00
45357;BME280;31092;51.924;21.448;2023-04-19T05:24:33;100312.25;;;7.87;100.00
45357;BME280;31092;51.924;21.448;2023-04-19T05:26:58;100308.75;;;7.86;100.00
45357;BME280;31092;51.924;21.448;2023-04-19T05:29:24;100312.09;;;7.88;100.00
45357;BME280;31092;51.924;21.448;2023-04-19T05:31:49;100316.47;;;7.89;100.00
45357;BME280;31092;51.924;21.448;2023-04-19T05:34:14;100317.00;;;7.93;100.00
45357;BME280;31092;51.924;21.448;2023-04-19T05:36:40;100316.16;;;7.92;100.00
45357;BME280;31092;51.924;21.448;2023-04-19T05:39:05;100315.03;;;7.95;100.00
45357;BME280;31092;51.924;21.448;2023-04-19T05:41:30;100319.13;;;7.99;100.00
45357;BME280;31092;51.924;21.448;2023-04-19T05:43:56;100321.66;;;8.01;100.00
45357;BME280;31092;51.924;21.448;2023-04-19T05:46:21;100316.31;;;8.01;100.00
45357;BME280;31092;51.924;21.448;2023-04-19T05:48:46;100322.50;;;8.01;100.00
45357;BME280;31092;51.924;21.448;2023-04-19T05:51:12;100318.97;;;8.01;100.00
45357;BME280;31092;51.924;21.448;2023-04-19T05:53:38;100319.97;;;8.00;100.00
45357;BME280;31092;51.924;21.448;2023-04-19T05:56:03;100330.84;;;7.98;100.00
45357;BME280;31092;51.924;21.448;2023-04-19T05:58:29;100320.78;;;8.00;100.00
45357;BME280;31092;51.924;21.448;2023-04-19T06:00:54;100319.53;;;8.04;100.00
45357;BME280;31092;51.924;21.448;2023-04-19T06:03:19;100322.06;;;8.06;100.00
45357;BME280;31092;51.924;21.448;2023-04-19T06:05:45;100320.22;;;8.06;100.00
45357;BME280;31092;51.924;21.448;2023-04-19T06:08:10;100314.84;;;8.06;100.00
45357;BME280;31092;51.924;21.448;2023-04-19T06:10:36;100317.53;;;8.06;100.00
45357;BME280;31092;51.924;21.448;2023-04-19T06:13:01;100310.50;;;8.05;100.00
45357;BME280;31092;51.924;21.448;2023-04-19T06:15:26;100311.16;;;8.07;100.00
45357;BME280;31092;51.924;21.448;2023-04-19T06:17:52;100306.13;;;8.04;100.00
45357;BME280;31092;51.924;21.448;2023-04-19T06:20:17;100315.31;;;8.02;100.00
45357;BME280;31092;51.924;21.448;2023-04-19T06:22:47;100310.78;;;8.02;100.00
45357;BME280;31092;51.924;21.448;2023-04-19T06:25:12;100307.81;;;8.05;100.00
45357;BME280;31092;51.924;21.448;2023-04-19T06:27:37;100312.03;;;8.08;100.00
45357;BME280;31092;51.924;21.448;2023-04-19T06:30:03;100306.06;;;8.14;100.00
45357;BME280;31092;51.924;21.448;2023-04-19T06:32:28;100313.34;;;8.22;100.00
45357;BME280;31092;51.924;21.448;2023-04-19T06:34:54;100310.63;;;8.31;100.00
45357;BME280;31092;51.924;21.448;2023-04-19T06:37:19;100311.72;;;8.48;100.00
45357;BME280;31092;51.924;21.448;2023-04-19T06:39:44;100312.03;;;8.63;100.00
45357;BME280;31092;51.924;21.448;2023-04-19T06:42:10;100309.75;;;8.68;100.00
45357;BME280;31092;51.924;21.448;2023-04-19T06:44:36;100309.44;;;8.71;100.00
45357;BME280;31092;51.924;21.448;2023-04-19T06:47:01;100310.44;;;8.70;100.00
45357;BME280;31092;51.924;21.448;2023-04-19T06:49:27;100311.13;;;8.72;100.00
45357;BME280;31092;51.924;21.448;2023-04-19T06:51:52;100313.66;;;8.74;100.00
45357;BME280;31092;51.924;21.448;2023-04-19T06:54:18;100312.53;;;8.76;100.00
45357;BME280;31092;51.924;21.448;2023-04-19T06:56:44;100317.13;;;8.84;100.00
45357;BME280;31092;51.924;21.448;2023-04-19T06:59:13;100317.81;;;8.86;100.00
45357;BME280;31092;51.924;21.448;2023-04-19T07:01:40;100315.44;;;8.83;100.00
45357;BME280;31092;51.924;21.448;2023-04-19T07:04:06;100311.03;;;8.82;100.00
45357;BME280;31092;51.924;21.448;2023-04-19T07:06:32;100305.06;;;8.88;100.00
45357;BME280;31092;51.924;21.448;2023-04-19T07:08:57;100305.69;;;9.00;100.00
45357;BME280;31092;51.924;21.448;2023-04-19T07:11:22;100315.69;;;9.07;100.00
45357;BME280;31092;51.924;21.448;2023-04-19T07:13:48;100312.81;;;9.09;100.00
45357;BME280;31092;51.924;21.448;2023-04-19T07:16:14;100313.81;;;9.08;100.00
45357;BME280;31092;51.924;21.448;2023-04-19T07:18:39;100312.28;;;9.05;100.00
45357;BME280;31092;51.924;21.448;2023-04-19T07:21:04;100312.91;;;8.99;100.00
45357;BME280;31092;51.924;21.448;2023-04-19T07:23:30;100318.91;;;8.93;100.00
45357;BME280;31092;51.924;21.448;2023-04-19T07:25:55;100310.97;;;8.92;100.00
45357;BME280;31092;51.924;21.448;2023-04-19T07:28:21;100306.69;;;8.99;100.00
45357;BME280;31092;51.924;21.448;2023-04-19T07:30:46;100311.75;;;9.02;100.00
45357;BME280;31092;51.924;21.448;2023-04-19T07:33:11;100309.91;;;9.02;100.00
45357;BME280;31092;51.924;21.448;2023-04-19T07:35:40;100313.53;;;9.11;100.00
45357;BME280;31092;51.924;21.448;2023-04-19T07:38:05;100315.03;;;9.14;100.00
45357;BME280;31092;51.924;21.448;2023-04-19T07:40:31;100312.34;;;9.14;100.00
45357;BME280;31092;51.924;21.448;2023-04-19T07:42:56;100311.03;;;9.18;100.00
45357;BME280;31092;51.924;21.448;2023-04-19T07:45:22;100311.69;;;9.11;100.00
45357;BME280;31092;51.924;21.448;2023-04-19T07:47:47;100306.91;;;9.05;100.00
45357;BME280;31092;51.924;21.448;2023-04-19T07:50:12;100308.53;;;8.98;100.00
45357;BME280;31092;51.924;21.448;2023-04-19T07:52:38;100310.38;;;8.98;100.00
45357;BME280;31092;51.924;21.448;2023-04-19T07:55:03;100305.13;;;8.96;100.00
45357;BME280;31092;51.924;21.448;2023-04-19T07:57:28;100315.88;;;8.96;100.00
45357;BME280;31092;51.924;21.448;2023-04-19T07:59:54;100317.13;;;9.02;100.00
45357;BME280;31092;51.924;21.448;2023-04-19T08:02:22;100314.50;;;9.10;100.00
45357;BME280;31092;51.924;21.448;2023-04-19T08:04:47;100318.56;;;9.14;100.00
45357;BME280;31092;51.924;21.448;2023-04-19T08:07:13;100313.00;;;9.07;100.00
45357;BME280;31092;51.924;21.448;2023-04-19T08:09:39;100313.97;;;9.06;100.00
45357;BME280;31092;51.924;21.448;2023-04-19T08:12:04;100321.50;;;9.03;100.00
45357;BME280;31092;51.924;21.448;2023-04-19T08:14:29;100317.28;;;9.00;100.00
45357;BME280;31092;51.924;21.448;2023-04-19T08:16:55;100316.41;;;9.00;100.00
45357;BME280;31092;51.924;21.448;2023-04-19T08:19:20;100319.19;;;9.08;100.00
45357;BME280;31092;51.924;21.448;2023-04-19T08:21:45;100323.75;;;9.07;100.00
45357;BME280;31092;51.924;21.448;2023-04-19T08:24:12;100322.03;;;9.06;100.00
45357;BME280;31092;51.924;21.448;2023-04-19T08:26:37;100316.22;;;9.11;100.00
45357;BME280;31092;51.924;21.448;2023-04-19T08:29:03;100325.34;;;9.18;100.00
45357;BME280;31092;51.924;21.448;2023-04-19T08:31:28;100332.94;;;9.23;100.00
45357;BME280;31092;51.924;21.448;2023-04-19T08:33:53;100333.78;;;9.23;100.00
45357;BME280;31092;51.924;21.448;2023-04-19T08:36:19;100333.25;;;9.20;100.00
45357;BME280;31092;51.924;21.448;2023-04-19T08:38:44;100336.09;;;9.18;100.00
45357;BME280;31092;51.924;21.448;2023-04-19T08:41:10;100331.88;;;9.16;100.00
45357;BME280;31092;51.924;21.448;2023-04-19T08:43:35;100337.06;;;9.17;100.00
45357;BME280;31092;51.924;21.448;2023-04-19T08:46:01;100333.78;;;9.23;100.00
45357;BME280;31092;51.924;21.448;2023-04-19T08:48:27;100336.81;;;9.28;100.00
45357;BME280;31092;51.924;21.448;2023-04-19T08:50:53;100332.69;;;9.34;100.00
45357;BME280;31092;51.924;21.448;2023-04-19T08:53:20;100338.81;;;9.44;100.00
45357;BME280;31092;51.924;21.448;2023-04-19T08:55:46;100347.59;;;9.46;100.00
45357;BME280;31092;51.924;21.448;2023-04-19T08:58:11;100338.72;;;9.54;100.00
45357;BME280;31092;51.924;21.448;2023-04-19T09:00:37;100341.94;;;9.57;100.00
45357;BME280;31092;51.924;21.448;2023-04-19T09:03:03;100345.31;;;9.59;100.00
45357;BME280;31092;51.924;21.448;2023-04-19T09:05:30;100349.22;;;9.65;100.00
45357;BME280;31092;51.924;21.448;2023-04-19T09:08:04;100348.28;;;9.74;100.00
45357;BME280;31092;51.924;21.448;2023-04-19T09:10:44;100340.94;;;9.84;100.00
45357;BME280;31092;51.924;21.448;2023-04-19T09:13:16;100338.47;;;9.91;100.00
45357;BME280;31092;51.924;21.448;2023-04-19T09:15:42;100346.06;;;9.96;100.00
45357;BME280;31092;51.924;21.448;2023-04-19T09:18:08;100339.00;;;9.95;100.00
45357;BME280;31092;51.924;21.448;2023-04-19T09:20:37;100344.34;;;9.87;100.00
45357;BME280;31092;51.924;21.448;2023-04-19T09:23:04;100347.81;;;9.79;100.00
45357;BME280;31092;51.924;21.448;2023-04-19T09:25:30;100352.50;;;9.77;100.00
45357;BME280;31092;51.924;21.448;2023-04-19T09:28:07;100346.50;;;9.83;100.00
45357;BME280;31092;51.924;21.448;2023-04-19T09:30:32;100349.84;;;9.85;100.00
45357;BME280;31092;51.924;21.448;2023-04-19T09:32:58;100344.66;;;9.83;100.00
45357;BME280;31092;51.924;21.448;2023-04-19T09:35:30;100345.66;;;9.82;100.00
45357;BME280;31092;51.924;21.448;2023-04-19T09:38:03;100348.97;;;9.76;100.00
45357;BME280;31092;51.924;21.448;2023-04-19T09:40:29;100352.66;;;9.75;100.00
45357;BME280;31092;51.924;21.448;2023-04-19T09:42:55;100355.19;;;9.77;100.00
45357;BME280;31092;51.924;21.448;2023-04-19T09:45:20;100355.19;;;9.77;100.00
45357;BME280;31092;51.924;21.448;2023-04-19T09:47:50;100352.66;;;9.75;100.00
45357;BME280;31092;51.924;21.448;2023-04-19T09:50:24;100357.81;;;9.69;100.00
45357;BME280;31092;51.924;21.448;2023-04-19T09:52:50;100356.50;;;9.73;100.00
45357;BME280;31092;51.924;21.448;2023-04-19T09:55:16;100357.41;;;9.81;100.00
45357;BME280;31092;51.924;21.448;2023-04-19T09:57:42;100352.53;;;9.85;100.00
45357;BME280;31092;51.924;21.448;2023-04-19T10:00:08;100352.31;;;9.96;100.00
45357;BME280;31092;51.924;21.448;2023-04-19T10:02:37;100344.09;;;10.06;100.00
45357;BME280;31092;51.924;21.448;2023-04-19T10:05:04;100347.16;;;10.11;100.00
45357;BME280;31092;51.924;21.448;2023-04-19T10:07:30;100347.50;;;10.16;100.00
45357;BME280;31092;51.924;21.448;2023-04-19T10:09:57;100344.75;;;10.26;100.00
45357;BME280;31092;51.924;21.448;2023-04-19T10:12:23;100344.44;;;10.29;100.00
45357;BME280;31092;51.924;21.448;2023-04-19T10:14:49;100338.88;;;10.30;100.00
45357;BME280;31092;51.924;21.448;2023-04-19T10:17:15;100337.38;;;10.36;100.00
45357;BME280;31092;51.924;21.448;2023-04-19T10:19:40;100337.47;;;10.61;100.00
45357;BME280;31092;51.924;21.448;2023-04-19T10:22:07;100336.69;;;10.85;100.00
45357;BME280;31092;51.924;21.448;2023-04-19T10:24:33;100334.19;;;10.99;100.00
45357;BME280;31092;51.924;21.448;2023-04-19T10:32:14;100319.22;;;11.21;100.00
45357;BME280;31092;51.924;21.448;2023-04-19T10:34:39;100330.84;;;11.22;100.00
45357;BME280;31092;51.924;21.448;2023-04-19T10:37:08;100330.00;;;11.21;100.00
45357;BME280;31092;51.924;21.448;2023-04-19T10:39:38;100323.25;;;11.25;100.00
45357;BME280;31092;51.924;21.448;2023-04-19T10:42:04;100318.19;;;11.47;100.00
45357;BME280;31092;51.924;21.448;2023-04-19T10:44:29;100324.06;;;11.75;100.00
45357;BME280;31092;51.924;21.448;2023-04-19T10:46:55;100319.84;;;11.97;100.00
45357;BME280;31092;51.924;21.448;2023-04-19T10:49:22;100309.50;;;12.09;100.00
45357;BME280;31092;51.924;21.448;2023-04-19T10:51:51;100311.50;;;12.15;100.00
45357;BME280;31092;51.924;21.448;2023-04-19T10:54:33;100308.97;;;12.21;100.00
45357;BME280;31092;51.924;21.448;2023-04-19T10:57:22;100313.69;;;12.19;100.00
45357;BME280;31092;51.924;21.448;2023-04-19T11:08:32;100325.06;;;11.90;100.00
45357;BME280;31092;51.924;21.448;2023-04-19T11:11:14;100328.78;;;11.81;100.00
45357;BME280;31092;51.924;21.448;2023-04-19T11:14:46;100319.50;;;11.75;100.00
45357;BME280;31092;51.924;21.448;2023-04-19T11:16:58;100324.59;;;11.70;100.00
45357;BME280;31092;51.924;21.448;2023-04-19T11:19:52;100325.25;;;11.72;100.00
45357;BME280;31092;51.924;21.448;2023-04-19T11:28:40;100332.16;;;11.91;100.00
45357;BME280;31092;51.924;21.448;2023-04-19T11:31:06;100327.63;;;11.84;100.00
45357;BME280;31092;51.924;21.448;2023-04-19T11:33:51;100334.38;;;11.71;100.00
45357;BME280;31092;51.924;21.448;2023-04-19T11:36:31;100330.16;;;11.61;100.00
45357;BME280;31092;51.924;21.448;2023-04-19T11:50:31;100335.91;;;11.25;100.00
45357;BME280;31092;51.924;21.448;2023-04-19T11:52:57;100337.59;;;11.18;100.00
45357;BME280;31092;51.924;21.448;2023-04-19T11:55:23;100339.09;;;11.20;100.00
45357;BME280;31092;51.924;21.448;2023-04-19T11:57:48;100340.28;;;11.26;100.00
45357;BME280;31092;51.924;21.448;2023-04-19T12:00:14;100337.59;;;11.26;100.00
45357;BME280;31092;51.924;21.448;2023-04-19T12:02:41;100340.59;;;11.31;100.00
45357;BME280;31092;51.924;21.448;2023-04-19T12:05:08;100339.59;;;11.48;100.00
45357;BME280;31092;51.924;21.448;2023-04-19T12:07:34;100337.72;;;11.73;100.00
45357;BME280;31092;51.924;21.448;2023-04-19T12:10:06;100336.88;;;11.97;100.00
45357;BME280;31092;51.924;21.448;2023-04-19T12:34:24;100328.81;;;12.99;100.00
45357;BME280;31092;51.924;21.448;2023-04-19T12:36:53;100326.41;;;13.04;100.00
45357;BME280;31092;51.924;21.448;2023-04-19T12:39:18;100322.28;;;13.16;100.00
45357;BME280;31092;51.924;21.448;2023-04-19T12:41:44;100315.28;;;13.22;100.00
45357;BME280;31092;51.924;21.448;2023-04-19T12:44:12;100322.22;;;13.25;100.00
45357;BME280;31092;51.924;21.448;2023-04-19T12:49:40;100314.16;;;13.16;100.00
45357;BME280;31092;51.924;21.448;2023-04-19T12:52:15;100313.78;;;13.19;100.00
45357;BME280;31092;51.924;21.448;2023-04-19T12:54:40;100316.31;;;13.21;100.00
45357;BME280;31092;51.924;21.448;2023-04-19T12:57:15;100320.09;;;13.12;100.00
45357;BME280;31092;51.924;21.448;2023-04-19T12:59:40;100330.63;;;13.07;100.00
45357;BME280;31092;51.924;21.448;2023-04-19T13:02:06;100325.22;;;13.07;100.00
45357;BME280;31092;51.924;21.448;2023-04-19T13:04:31;100323.81;;;13.11;100.00
45357;BME280;31092;51.924;21.448;2023-04-19T13:06:57;100315.28;;;13.22;100.00
45357;BME280;31092;51.924;21.448;2023-04-19T13:12:01;100314.75;;;13.50;100.00
45357;BME280;31092;51.924;21.448;2023-04-19T13:14:34;100320.03;;;13.66;100.00
45357;BME280;31092;51.924;21.448;2023-04-19T13:16:59;100307.03;;;13.76;100.00
45357;BME280;31092;51.924;21.448;2023-04-19T13:19:31;100304.06;;;13.71;100.00
45357;BME280;31092;51.924;21.448;2023-04-19T13:21:57;100312.91;;;13.65;100.00
45357;BME280;31092;51.924;21.448;2023-04-19T13:24:25;100312.31;;;13.55;100.00
45357;BME280;31092;51.924;21.448;2023-04-19T13:27:06;100305.50;;;13.59;100.00
45357;BME280;31092;51.924;21.448;2023-04-19T13:29:32;100299.47;;;13.72;100.00
45357;BME280;31092;51.924;21.448;2023-04-19T13:32:07;100305.56;;;13.74;100.00
45357;BME280;31092;51.924;21.448;2023-04-19T13:34:36;100304.75;;;13.88;100.00